Webb, Iowa
Current Conditions -  °F | °C
As of 11:53 AM on Thursday 30 Oct 2014 (Local Time) from KSPW Reporting Station
Clear Clear  
Wind Chill: 12°   Ceiling: Unl
Heat Index: 12°   Visibility: 10mi
Dew Point:   Wind: 14mph
Humidity: 51%   Direction: 360°N
Pressure: 30.05"   Gusts: NA
Location:  42.95°N, 95.01°W
Report Text: KSPW 301653Z AUTO 36012KT 10SM CLR 12/02 A3005 RMK AO2 SLP182 T01220022 TSNO
Loading
Personal Weather Stations






























Interactive Weather Map
Tropical Storm Tracking
New forecast layout! Learn more

10-Day Weather Forecast

Advertisements
Track Severe Weather on mobile